sensor_id;sensor_type;location;lat;lon;timestamp;P1;durP1;ratioP1;P2;durP2;ratioP2
53751;SDS011;41095;53.090;6.692;2023-07-13T00:01:15;3.50;;;2.75;;
53751;SDS011;41095;53.090;6.692;2023-07-13T00:03:42;5.85;;;2.88;;
53751;SDS011;41095;53.090;6.692;2023-07-13T00:06:08;6.15;;;3.08;;
53751;SDS011;41095;53.090;6.692;2023-07-13T00:08:34;5.68;;;3.00;;
53751;SDS011;41095;53.090;6.692;2023-07-13T00:11:01;4.03;;;3.35;;
53751;SDS011;41095;53.090;6.692;2023-07-13T00:13:28;5.65;;;2.92;;
53751;SDS011;41095;53.090;6.692;2023-07-13T00:15:54;5.18;;;3.42;;
53751;SDS011;41095;53.090;6.692;2023-07-13T00:18:22;6.85;;;3.30;;
53751;SDS011;41095;53.090;6.692;2023-07-13T00:20:48;7.40;;;3.30;;
53751;SDS011;41095;53.090;6.692;2023-07-13T00:23:14;6.57;;;2.92;;
53751;SDS011;41095;53.090;6.692;2023-07-13T00:25:40;5.05;;;2.97;;
53751;SDS011;41095;53.090;6.692;2023-07-13T00:28:05;7.32;;;3.30;;
53751;SDS011;41095;53.090;6.692;2023-07-13T00:30:31;4.72;;;3.38;;
53751;SDS011;41095;53.090;6.692;2023-07-13T00:32:57;4.75;;;3.28;;
53751;SDS011;41095;53.090;6.692;2023-07-13T00:35:23;10.35;;;3.42;;
53751;SDS011;41095;53.090;6.692;2023-07-13T00:37:48;6.90;;;3.38;;
53751;SDS011;41095;53.090;6.692;2023-07-13T00:40:15;6.90;;;2.70;;
53751;SDS011;41095;53.090;6.692;2023-07-13T00:42:41;6.55;;;3.83;;
53751;SDS011;41095;53.090;6.692;2023-07-13T00:47:33;7.30;;;3.30;;
53751;SDS011;41095;53.090;6.692;2023-07-13T00:49:59;7.00;;;3.40;;
53751;SDS011;41095;53.090;6.692;2023-07-13T00:52:25;7.10;;;3.20;;
53751;SDS011;41095;53.090;6.692;2023-07-13T00:54:53;6.10;;;2.45;;
53751;SDS011;41095;53.090;6.692;2023-07-13T00:57:20;9.65;;;3.83;;
53751;SDS011;41095;53.090;6.692;2023-07-13T00:59:47;6.60;;;3.25;;
53751;SDS011;41095;53.090;6.692;2023-07-13T01:02:16;8.98;;;3.15;;
53751;SDS011;41095;53.090;6.692;2023-07-13T01:04:43;4.53;;;2.88;;
53751;SDS011;41095;53.090;6.692;2023-07-13T01:07:09;5.88;;;3.47;;
53751;SDS011;41095;53.090;6.692;2023-07-13T01:09:36;10.02;;;4.60;;
53751;SDS011;41095;53.090;6.692;2023-07-13T01:12:02;5.07;;;2.90;;
53751;SDS011;41095;53.090;6.692;2023-07-13T01:14:29;6.32;;;3.20;;
53751;SDS011;41095;53.090;6.692;2023-07-13T01:16:55;6.78;;;3.55;;
53751;SDS011;41095;53.090;6.692;2023-07-13T01:19:37;5.95;;;3.85;;
53751;SDS011;41095;53.090;6.692;2023-07-13T01:22:09;8.57;;;3.45;;
53751;SDS011;41095;53.090;6.692;2023-07-13T01:24:36;7.45;;;3.72;;
53751;SDS011;41095;53.090;6.692;2023-07-13T01:27:04;8.80;;;3.63;;
53751;SDS011;41095;53.090;6.692;2023-07-13T01:29:31;8.07;;;3.90;;
53751;SDS011;41095;53.090;6.692;2023-07-13T01:31:58;9.18;;;3.45;;
53751;SDS011;41095;53.090;6.692;2023-07-13T01:34:25;8.68;;;3.58;;
53751;SDS011;41095;53.090;6.692;2023-07-13T01:36:51;12.25;;;4.28;;
53751;SDS011;41095;53.090;6.692;2023-07-13T01:39:20;7.10;;;3.60;;
53751;SDS011;41095;53.090;6.692;2023-07-13T01:41:46;7.88;;;3.85;;
53751;SDS011;41095;53.090;6.692;2023-07-13T01:44:12;9.10;;;3.95;;
53751;SDS011;41095;53.090;6.692;2023-07-13T01:46:38;9.82;;;3.50;;
53751;SDS011;41095;53.090;6.692;2023-07-13T01:49:03;11.05;;;4.15;;
53751;SDS011;41095;53.090;6.692;2023-07-13T01:51:29;6.07;;;3.47;;
53751;SDS011;41095;53.090;6.692;2023-07-13T01:53:55;11.50;;;3.65;;
53751;SDS011;41095;53.090;6.692;2023-07-13T01:56:20;11.65;;;4.38;;
53751;SDS011;41095;53.090;6.692;2023-07-13T01:58:46;7.25;;;4.32;;
53751;SDS011;41095;53.090;6.692;2023-07-13T02:01:12;8.02;;;3.90;;
53751;SDS011;41095;53.090;6.692;2023-07-13T02:03:38;10.77;;;4.07;;
53751;SDS011;41095;53.090;6.692;2023-07-13T02:06:05;7.55;;;4.13;;
53751;SDS011;41095;53.090;6.692;2023-07-13T02:08:32;8.18;;;4.15;;
53751;SDS011;41095;53.090;6.692;2023-07-13T02:10:58;8.98;;;3.88;;
53751;SDS011;41095;53.090;6.692;2023-07-13T02:13:24;10.07;;;4.43;;
53751;SDS011;41095;53.090;6.692;2023-07-13T02:15:50;8.82;;;4.72;;
53751;SDS011;41095;53.090;6.692;2023-07-13T02:18:16;8.90;;;4.05;;
53751;SDS011;41095;53.090;6.692;2023-07-13T02:20:42;6.63;;;3.33;;
53751;SDS011;41095;53.090;6.692;2023-07-13T02:23:08;7.50;;;3.45;;
53751;SDS011;41095;53.090;6.692;2023-07-13T02:25:34;9.70;;;3.75;;
53751;SDS011;41095;53.090;6.692;2023-07-13T02:28:00;7.22;;;3.55;;
53751;SDS011;41095;53.090;6.692;2023-07-13T02:30:26;8.98;;;4.10;;
53751;SDS011;41095;53.090;6.692;2023-07-13T02:32:55;10.98;;;4.13;;
53751;SDS011;41095;53.090;6.692;2023-07-13T02:35:21;6.82;;;3.28;;
53751;SDS011;41095;53.090;6.692;2023-07-13T02:37:46;4.90;;;3.25;;
53751;SDS011;41095;53.090;6.692;2023-07-13T02:40:12;10.60;;;3.38;;
53751;SDS011;41095;53.090;6.692;2023-07-13T02:42:38;8.95;;;3.22;;
53751;SDS011;41095;53.090;6.692;2023-07-13T02:45:04;7.32;;;3.70;;
53751;SDS011;41095;53.090;6.692;2023-07-13T02:47:32;6.30;;;4.25;;
53751;SDS011;41095;53.090;6.692;2023-07-13T02:55:15;6.90;;;4.05;;
53751;SDS011;41095;53.090;6.692;2023-07-13T02:57:43;10.30;;;4.85;;
53751;SDS011;41095;53.090;6.692;2023-07-13T03:00:09;7.45;;;3.47;;
53751;SDS011;41095;53.090;6.692;2023-07-13T03:02:35;6.55;;;3.17;;
53751;SDS011;41095;53.090;6.692;2023-07-13T03:05:01;8.77;;;4.10;;
53751;SDS011;41095;53.090;6.692;2023-07-13T03:07:27;14.82;;;4.72;;
53751;SDS011;41095;53.090;6.692;2023-07-13T03:09:56;8.02;;;3.42;;
53751;SDS011;41095;53.090;6.692;2023-07-13T03:12:23;7.82;;;4.10;;
53751;SDS011;41095;53.090;6.692;2023-07-13T03:14:49;8.35;;;3.78;;
53751;SDS011;41095;53.090;6.692;2023-07-13T03:17:15;8.93;;;4.00;;
53751;SDS011;41095;53.090;6.692;2023-07-13T03:19:41;10.32;;;4.90;;
53751;SDS011;41095;53.090;6.692;2023-07-13T03:22:07;10.10;;;3.65;;
53751;SDS011;41095;53.090;6.692;2023-07-13T03:24:33;10.88;;;4.22;;
53751;SDS011;41095;53.090;6.692;2023-07-13T03:27:01;8.00;;;4.03;;
53751;SDS011;41095;53.090;6.692;2023-07-13T03:29:29;6.68;;;4.57;;
53751;SDS011;41095;53.090;6.692;2023-07-13T03:31:55;10.98;;;4.13;;
53751;SDS011;41095;53.090;6.692;2023-07-13T03:34:20;10.23;;;4.60;;
53751;SDS011;41095;53.090;6.692;2023-07-13T03:36:46;6.95;;;3.75;;
53751;SDS011;41095;53.090;6.692;2023-07-13T03:39:12;12.30;;;4.10;;
53751;SDS011;41095;53.090;6.692;2023-07-13T03:41:38;9.35;;;4.28;;
53751;SDS011;41095;53.090;6.692;2023-07-13T03:44:04;11.10;;;5.65;;
53751;SDS011;41095;53.090;6.692;2023-07-13T03:46:29;6.22;;;3.72;;
53751;SDS011;41095;53.090;6.692;2023-07-13T03:48:55;8.30;;;4.55;;
53751;SDS011;41095;53.090;6.692;2023-07-13T03:51:21;4.78;;;3.40;;
53751;SDS011;41095;53.090;6.692;2023-07-13T03:53:47;9.57;;;4.60;;
53751;SDS011;41095;53.090;6.692;2023-07-13T03:56:13;8.02;;;5.22;;
53751;SDS011;41095;53.090;6.692;2023-07-13T03:58:41;9.55;;;4.85;;
53751;SDS011;41095;53.090;6.692;2023-07-13T04:01:08;8.15;;;3.70;;
53751;SDS011;41095;53.090;6.692;2023-07-13T04:03:35;8.15;;;3.63;;
53751;SDS011;41095;53.090;6.692;2023-07-13T04:06:02;10.43;;;4.65;;
53751;SDS011;41095;53.090;6.692;2023-07-13T04:08:30;10.52;;;4.18;;
53751;SDS011;41095;53.090;6.692;2023-07-13T04:10:58;9.80;;;4.32;;
53751;SDS011;41095;53.090;6.692;2023-07-13T04:13:24;9.85;;;4.75;;
53751;SDS011;41095;53.090;6.692;2023-07-13T04:15:51;10.15;;;5.18;;
53751;SDS011;41095;53.090;6.692;2023-07-13T04:18:18;11.52;;;4.93;;
53751;SDS011;41095;53.090;6.692;2023-07-13T04:20:45;6.78;;;4.18;;
53751;SDS011;41095;53.090;6.692;2023-07-13T04:23:11;8.27;;;3.83;;
53751;SDS011;41095;53.090;6.692;2023-07-13T04:25:36;8.30;;;3.95;;
53751;SDS011;41095;53.090;6.692;2023-07-13T04:28:03;7.20;;;2.92;;
53751;SDS011;41095;53.090;6.692;2023-07-13T04:30:29;10.70;;;4.43;;
53751;SDS011;41095;53.090;6.692;2023-07-13T04:32:55;9.50;;;4.15;;
53751;SDS011;41095;53.090;6.692;2023-07-13T04:35:20;6.43;;;4.20;;
53751;SDS011;41095;53.090;6.692;2023-07-13T04:37:48;7.72;;;4.05;;
53751;SDS011;41095;53.090;6.692;2023-07-13T04:40:15;10.32;;;4.82;;
53751;SDS011;41095;53.090;6.692;2023-07-13T04:42:45;9.20;;;3.67;;
53751;SDS011;41095;53.090;6.692;2023-07-13T04:45:12;13.52;;;4.85;;
53751;SDS011;41095;53.090;6.692;2023-07-13T04:47:39;7.90;;;4.05;;
53751;SDS011;41095;53.090;6.692;2023-07-13T04:50:05;11.05;;;3.83;;
53751;SDS011;41095;53.090;6.692;2023-07-13T04:52:32;8.88;;;4.65;;
53751;SDS011;41095;53.090;6.692;2023-07-13T04:54:58;12.57;;;5.05;;
53751;SDS011;41095;53.090;6.692;2023-07-13T04:57:25;10.15;;;4.30;;
53751;SDS011;41095;53.090;6.692;2023-07-13T04:59:52;11.60;;;4.20;;
53751;SDS011;41095;53.090;6.692;2023-07-13T05:02:17;6.03;;;4.18;;
53751;SDS011;41095;53.090;6.692;2023-07-13T05:04:46;9.27;;;5.28;;
53751;SDS011;41095;53.090;6.692;2023-07-13T05:07:12;8.88;;;4.18;;
53751;SDS011;41095;53.090;6.692;2023-07-13T05:09:38;9.75;;;4.57;;
53751;SDS011;41095;53.090;6.692;2023-07-13T05:12:05;9.60;;;4.57;;
53751;SDS011;41095;53.090;6.692;2023-07-13T05:14:32;6.97;;;3.90;;
53751;SDS011;41095;53.090;6.692;2023-07-13T05:16:58;7.65;;;3.63;;
53751;SDS011;41095;53.090;6.692;2023-07-13T05:19:23;8.90;;;4.55;;
53751;SDS011;41095;53.090;6.692;2023-07-13T05:21:49;6.38;;;4.05;;
53751;SDS011;41095;53.090;6.692;2023-07-13T05:24:15;10.70;;;3.47;;
53751;SDS011;41095;53.090;6.692;2023-07-13T05:26:41;7.13;;;4.22;;
53751;SDS011;41095;53.090;6.692;2023-07-13T05:29:06;8.02;;;3.80;;
53751;SDS011;41095;53.090;6.692;2023-07-13T05:31:32;6.35;;;4.10;;
53751;SDS011;41095;53.090;6.692;2023-07-13T05:33:58;9.25;;;4.47;;
53751;SDS011;41095;53.090;6.692;2023-07-13T05:36:23;7.88;;;3.40;;
53751;SDS011;41095;53.090;6.692;2023-07-13T05:38:49;9.45;;;4.45;;
53751;SDS011;41095;53.090;6.692;2023-07-13T05:41:14;13.43;;;4.20;;
53751;SDS011;41095;53.090;6.692;2023-07-13T05:43:40;9.48;;;3.92;;
53751;SDS011;41095;53.090;6.692;2023-07-13T05:46:06;8.75;;;4.05;;
53751;SDS011;41095;53.090;6.692;2023-07-13T05:48:31;6.05;;;4.05;;
53751;SDS011;41095;53.090;6.692;2023-07-13T05:50:57;8.32;;;4.47;;
53751;SDS011;41095;53.090;6.692;2023-07-13T05:53:23;9.73;;;3.85;;
53751;SDS011;41095;53.090;6.692;2023-07-13T05:55:48;7.05;;;4.28;;
53751;SDS011;41095;53.090;6.692;2023-07-13T05:58:18;6.82;;;4.07;;
53751;SDS011;41095;53.090;6.692;2023-07-13T06:00:44;5.30;;;3.47;;
53751;SDS011;41095;53.090;6.692;2023-07-13T06:03:11;6.43;;;3.30;;
53751;SDS011;41095;53.090;6.692;2023-07-13T06:05:36;6.20;;;3.70;;
53751;SDS011;41095;53.090;6.692;2023-07-13T06:08:03;8.55;;;3.58;;
53751;SDS011;41095;53.090;6.692;2023-07-13T06:10:32;7.70;;;3.90;;
53751;SDS011;41095;53.090;6.692;2023-07-13T06:12:58;6.07;;;3.28;;
53751;SDS011;41095;53.090;6.692;2023-07-13T06:15:24;8.05;;;4.10;;
53751;SDS011;41095;53.090;6.692;2023-07-13T06:17:50;7.15;;;3.40;;
53751;SDS011;41095;53.090;6.692;2023-07-13T06:20:15;9.40;;;3.72;;
53751;SDS011;41095;53.090;6.692;2023-07-13T06:22:41;6.80;;;3.50;;
53751;SDS011;41095;53.090;6.692;2023-07-13T06:25:07;4.85;;;2.92;;
53751;SDS011;41095;53.090;6.692;2023-07-13T06:27:33;7.03;;;3.13;;
53751;SDS011;41095;53.090;6.692;2023-07-13T06:29:58;7.80;;;3.47;;
53751;SDS011;41095;53.090;6.692;2023-07-13T06:32:24;6.60;;;2.30;;
53751;SDS011;41095;53.090;6.692;2023-07-13T06:34:51;9.85;;;3.33;;
53751;SDS011;41095;53.090;6.692;2023-07-13T06:37:17;6.70;;;3.15;;
53751;SDS011;41095;53.090;6.692;2023-07-13T06:39:43;8.27;;;2.70;;
53751;SDS011;41095;53.090;6.692;2023-07-13T06:42:09;6.18;;;2.55;;
53751;SDS011;41095;53.090;6.692;2023-07-13T06:44:34;6.85;;;3.33;;
53751;SDS011;41095;53.090;6.692;2023-07-13T06:47:00;5.78;;;2.72;;
53751;SDS011;41095;53.090;6.692;2023-07-13T06:49:26;9.85;;;2.85;;
53751;SDS011;41095;53.090;6.692;2023-07-13T06:51:51;5.45;;;2.95;;
53751;SDS011;41095;53.090;6.692;2023-07-13T06:54:17;5.03;;;2.42;;
53751;SDS011;41095;53.090;6.692;2023-07-13T06:56:43;6.55;;;2.83;;
53751;SDS011;41095;53.090;6.692;2023-07-13T06:59:08;5.47;;;3.25;;
53751;SDS011;41095;53.090;6.692;2023-07-13T07:01:34;8.68;;;3.25;;
53751;SDS011;41095;53.090;6.692;2023-07-13T07:04:00;4.15;;;2.45;;
53751;SDS011;41095;53.090;6.692;2023-07-13T07:06:25;5.60;;;2.00;;
53751;SDS011;41095;53.090;6.692;2023-07-13T07:08:51;4.32;;;2.00;;
53751;SDS011;41095;53.090;6.692;2023-07-13T07:11:19;5.53;;;1.90;;
53751;SDS011;41095;53.090;6.692;2023-07-13T07:13:47;6.38;;;2.13;;
53751;SDS011;41095;53.090;6.692;2023-07-13T07:16:13;6.55;;;2.22;;
53751;SDS011;41095;53.090;6.692;2023-07-13T07:18:39;6.25;;;2.15;;
53751;SDS011;41095;53.090;6.692;2023-07-13T07:21:05;4.80;;;1.98;;
53751;SDS011;41095;53.090;6.692;2023-07-13T07:23:31;4.68;;;2.47;;
53751;SDS011;41095;53.090;6.692;2023-07-13T07:25:56;4.47;;;2.05;;
53751;SDS011;41095;53.090;6.692;2023-07-13T07:28:23;4.95;;;2.13;;
53751;SDS011;41095;53.090;6.692;2023-07-13T07:30:52;6.57;;;1.98;;
53751;SDS011;41095;53.090;6.692;2023-07-13T07:33:18;4.97;;;1.70;;
53751;SDS011;41095;53.090;6.692;2023-07-13T07:35:43;3.88;;;1.80;;
53751;SDS011;41095;53.090;6.692;2023-07-13T07:38:09;5.80;;;2.00;;
53751;SDS011;41095;53.090;6.692;2023-07-13T07:40:38;5.13;;;2.00;;
53751;SDS011;41095;53.090;6.692;2023-07-13T07:43:09;3.28;;;2.05;;
53751;SDS011;41095;53.090;6.692;2023-07-13T07:45:36;3.13;;;1.92;;
53751;SDS011;41095;53.090;6.692;2023-07-13T07:48:03;4.70;;;2.20;;
53751;SDS011;41095;53.090;6.692;2023-07-13T07:50:30;3.58;;;2.05;;
53751;SDS011;41095;53.090;6.692;2023-07-13T07:52:56;3.72;;;1.55;;
53751;SDS011;41095;53.090;6.692;2023-07-13T07:55:22;2.83;;;1.88;;
53751;SDS011;41095;53.090;6.692;2023-07-13T07:57:50;5.38;;;1.98;;
53751;SDS011;41095;53.090;6.692;2023-07-13T08:00:15;3.35;;;1.42;;
53751;SDS011;41095;53.090;6.692;2023-07-13T08:02:42;2.78;;;1.80;;
53751;SDS011;41095;53.090;6.692;2023-07-13T08:05:08;2.33;;;1.65;;
53751;SDS011;41095;53.090;6.692;2023-07-13T08:07:34;4.72;;;2.47;;
53751;SDS011;41095;53.090;6.692;2023-07-13T08:10:01;4.82;;;2.00;;
53751;SDS011;41095;53.090;6.692;2023-07-13T08:12:27;3.55;;;2.00;;
53751;SDS011;41095;53.090;6.692;2023-07-13T08:14:53;3.55;;;1.58;;
53751;SDS011;41095;53.090;6.692;2023-07-13T08:17:22;4.38;;;1.90;;
53751;SDS011;41095;53.090;6.692;2023-07-13T08:19:48;6.05;;;2.65;;
53751;SDS011;41095;53.090;6.692;2023-07-13T08:22:14;3.50;;;1.85;;
53751;SDS011;41095;53.090;6.692;2023-07-13T08:24:40;2.72;;;2.00;;
53751;SDS011;41095;53.090;6.692;2023-07-13T08:27:07;5.47;;;1.92;;
53751;SDS011;41095;53.090;6.692;2023-07-13T08:29:33;5.68;;;2.47;;
53751;SDS011;41095;53.090;6.692;2023-07-13T08:31:59;3.67;;;2.05;;
53751;SDS011;41095;53.090;6.692;2023-07-13T08:34:25;4.22;;;2.05;;
53751;SDS011;41095;53.090;6.692;2023-07-13T08:36:50;7.70;;;3.05;;
53751;SDS011;41095;53.090;6.692;2023-07-13T08:39:16;4.93;;;2.63;;
53751;SDS011;41095;53.090;6.692;2023-07-13T08:41:44;7.00;;;3.22;;
53751;SDS011;41095;53.090;6.692;2023-07-13T08:44:18;7.07;;;2.90;;
53751;SDS011;41095;53.090;6.692;2023-07-13T08:46:51;16.05;;;3.78;;
53751;SDS011;41095;53.090;6.692;2023-07-13T08:49:21;5.82;;;3.38;;
53751;SDS011;41095;53.090;6.692;2023-07-13T08:51:58;4.78;;;2.45;;
53751;SDS011;41095;53.090;6.692;2023-07-13T08:54:45;2.45;;;2.00;;
53751;SDS011;41095;53.090;6.692;2023-07-13T08:57:17;4.72;;;2.30;;
53751;SDS011;41095;53.090;6.692;2023-07-13T08:59:45;5.35;;;2.28;;
53751;SDS011;41095;53.090;6.692;2023-07-13T09:04:50;3.60;;;2.05;;
53751;SDS011;41095;53.090;6.692;2023-07-13T09:15:32;4.15;;;2.30;;
53751;SDS011;41095;53.090;6.692;2023-07-13T09:18:08;3.25;;;2.05;;
53751;SDS011;41095;53.090;6.692;2023-07-13T09:20:41;3.08;;;1.85;;
53751;SDS011;41095;53.090;6.692;2023-07-13T09:23:15;4.38;;;2.40;;
53751;SDS011;41095;53.090;6.692;2023-07-13T09:25:45;2.65;;;1.52;;
53751;SDS011;41095;53.090;6.692;2023-07-13T09:28:19;4.10;;;1.85;;
53751;SDS011;41095;53.090;6.692;2023-07-13T09:33:32;1.75;;;1.65;;
53751;SDS011;41095;53.090;6.692;2023-07-13T09:36:00;2.30;;;1.52;;
53751;SDS011;41095;53.090;6.692;2023-07-13T09:38:27;2.50;;;1.50;;
53751;SDS011;41095;53.090;6.692;2023-07-13T09:41:04;2.60;;;2.17;;
53751;SDS011;41095;53.090;6.692;2023-07-13T09:44:09;4.75;;;2.08;;
53751;SDS011;41095;53.090;6.692;2023-07-13T09:46:38;3.03;;;1.90;;
53751;SDS011;41095;53.090;6.692;2023-07-13T09:49:09;3.22;;;1.83;;
53751;SDS011;41095;53.090;6.692;2023-07-13T09:51:36;4.75;;;1.92;;
53751;SDS011;41095;53.090;6.692;2023-07-13T09:54:18;2.70;;;2.03;;
53751;SDS011;41095;53.090;6.692;2023-07-13T09:56:45;4.90;;;1.90;;
53751;SDS011;41095;53.090;6.692;2023-07-13T09:59:54;3.95;;;2.40;;
53751;SDS011;41095;53.090;6.692;2023-07-13T10:02:50;5.38;;;2.78;;
53751;SDS011;41095;53.090;6.692;2023-07-13T10:07:40;5.75;;;2.33;;
53751;SDS011;41095;53.090;6.692;2023-07-13T10:10:18;5.80;;;2.70;;
53751;SDS011;41095;53.090;6.692;2023-07-13T10:12:46;6.47;;;3.17;;
53751;SDS011;41095;53.090;6.692;2023-07-13T10:15:13;4.85;;;3.30;;
53751;SDS011;41095;53.090;6.692;2023-07-13T10:17:42;7.38;;;3.78;;
53751;SDS011;41095;53.090;6.692;2023-07-13T10:20:09;5.25;;;3.38;;
53751;SDS011;41095;53.090;6.692;2023-07-13T10:25:30;4.15;;;3.08;;
53751;SDS011;41095;53.090;6.692;2023-07-13T10:30:50;4.75;;;3.50;;
53751;SDS011;41095;53.090;6.692;2023-07-13T10:33:18;4.82;;;2.85;;
53751;SDS011;41095;53.090;6.692;2023-07-13T10:35:46;4.28;;;3.92;;
53751;SDS011;41095;53.090;6.692;2023-07-13T10:38:20;4.40;;;4.00;;
53751;SDS011;41095;53.090;6.692;2023-07-13T10:41:00;3.63;;;3.33;;
53751;SDS011;41095;53.090;6.692;2023-07-13T10:43:34;3.47;;;3.17;;
53751;SDS011;41095;53.090;6.692;2023-07-13T10:46:03;3.90;;;2.67;;
53751;SDS011;41095;53.090;6.692;2023-07-13T10:48:35;3.45;;;2.70;;
53751;SDS011;41095;53.090;6.692;2023-07-13T10:51:02;3.20;;;2.58;;
53751;SDS011;41095;53.090;6.692;2023-07-13T10:53:32;2.70;;;2.50;;
53751;SDS011;41095;53.090;6.692;2023-07-13T10:56:00;3.65;;;2.72;;
53751;SDS011;41095;53.090;6.692;2023-07-13T10:58:35;4.13;;;2.55;;
53751;SDS011;41095;53.090;6.692;2023-07-13T11:03:32;2.90;;;2.42;;
53751;SDS011;41095;53.090;6.692;2023-07-13T11:06:17;4.07;;;2.50;;
53751;SDS011;41095;53.090;6.692;2023-07-13T11:18:44;3.53;;;2.03;;
53751;SDS011;41095;53.090;6.692;2023-07-13T11:21:17;3.03;;;2.08;;
53751;SDS011;41095;53.090;6.692;2023-07-13T11:23:44;5.38;;;2.60;;
53751;SDS011;41095;53.090;6.692;2023-07-13T11:31:43;2.28;;;2.00;;
53751;SDS011;41095;53.090;6.692;2023-07-13T11:34:18;3.33;;;2.10;;
53751;SDS011;41095;53.090;6.692;2023-07-13T11:36:51;3.28;;;2.22;;
53751;SDS011;41095;53.090;6.692;2023-07-13T11:39:18;3.38;;;1.80;;
53751;SDS011;41095;53.090;6.692;2023-07-13T11:41:52;4.00;;;1.65;;
53751;SDS011;41095;53.090;6.692;2023-07-13T11:44:22;2.78;;;1.45;;
53751;SDS011;41095;53.090;6.692;2023-07-13T11:46:57;3.95;;;1.77;;
53751;SDS011;41095;53.090;6.692;2023-07-13T11:49:31;4.03;;;2.05;;
53751;SDS011;41095;53.090;6.692;2023-07-13T11:51:57;4.72;;;2.20;;
53751;SDS011;41095;53.090;6.692;2023-07-13T11:56:52;2.50;;;1.70;;
53751;SDS011;41095;53.090;6.692;2023-07-13T11:59:20;3.35;;;1.80;;
53751;SDS011;41095;53.090;6.692;2023-07-13T12:01:48;3.40;;;2.17;;
53751;SDS011;41095;53.090;6.692;2023-07-13T12:04:21;3.20;;;1.60;;
53751;SDS011;41095;53.090;6.692;2023-07-13T12:09:25;4.57;;;2.08;;
53751;SDS011;41095;53.090;6.692;2023-07-13T12:11:52;2.42;;;2.15;;
53751;SDS011;41095;53.090;6.692;2023-07-13T12:14:19;4.90;;;1.92;;
53751;SDS011;41095;53.090;6.692;2023-07-13T12:16:46;2.70;;;1.67;;
53751;SDS011;41095;53.090;6.692;2023-07-13T12:19:18;5.00;;;1.55;;
53751;SDS011;41095;53.090;6.692;2023-07-13T12:21:47;3.72;;;1.90;;
53751;SDS011;41095;53.090;6.692;2023-07-13T12:24:15;2.92;;;1.55;;
53751;SDS011;41095;53.090;6.692;2023-07-13T12:27:13;3.17;;;1.70;;
53751;SDS011;41095;53.090;6.692;2023-07-13T12:29:48;3.13;;;1.80;;
53751;SDS011;41095;53.090;6.692;2023-07-13T12:32:31;5.03;;;2.25;;
53751;SDS011;41095;53.090;6.692;2023-07-13T12:35:12;3.35;;;1.45;;
53751;SDS011;41095;53.090;6.692;2023-07-13T12:37:43;3.03;;;2.22;;
53751;SDS011;41095;53.090;6.692;2023-07-13T12:40:18;5.18;;;1.60;;
53751;SDS011;41095;53.090;6.692;2023-07-13T12:42:47;5.60;;;1.92;;
53751;SDS011;41095;53.090;6.692;2023-07-13T12:47:54;2.08;;;1.50;;
53751;SDS011;41095;53.090;6.692;2023-07-13T12:50:34;4.63;;;1.50;;
53751;SDS011;41095;53.090;6.692;2023-07-13T12:53:04;3.42;;;1.90;;
53751;SDS011;41095;53.090;6.692;2023-07-13T12:55:41;2.77;;;1.73;;
53751;SDS011;41095;53.090;6.692;2023-07-13T12:58:09;1.83;;;1.50;;
53751;SDS011;41095;53.090;6.692;2023-07-13T13:00:47;3.13;;;1.73;;
53751;SDS011;41095;53.090;6.692;2023-07-13T13:03:37;2.63;;;1.55;;
53751;SDS011;41095;53.090;6.692;2023-07-13T13:06:17;3.65;;;1.58;;
53751;SDS011;41095;53.090;6.692;2023-07-13T13:08:50;4.03;;;2.00;;
53751;SDS011;41095;53.090;6.692;2023-07-13T13:11:19;3.20;;;1.33;;
53751;SDS011;41095;53.090;6.692;2023-07-13T13:13:45;2.05;;;1.30;;
53751;SDS011;41095;53.090;6.692;2023-07-13T13:18:50;3.33;;;1.95;;
53751;SDS011;41095;53.090;6.692;2023-07-13T13:21:17;4.20;;;2.00;;
53751;SDS011;41095;53.090;6.692;2023-07-13T13:23:44;3.88;;;1.33;;
53751;SDS011;41095;53.090;6.692;2023-07-13T13:26:14;2.22;;;1.30;;
53751;SDS011;41095;53.090;6.692;2023-07-13T13:28:41;7.93;;;1.85;;
53751;SDS011;41095;53.090;6.692;2023-07-13T13:31:08;4.93;;;1.30;;
53751;SDS011;41095;53.090;6.692;2023-07-13T13:33:37;2.45;;;1.50;;
53751;SDS011;41095;53.090;6.692;2023-07-13T13:36:12;1.55;;;1.40;;
53751;SDS011;41095;53.090;6.692;2023-07-13T13:38:47;3.42;;;1.30;;
53751;SDS011;41095;53.090;6.692;2023-07-13T13:41:15;3.65;;;1.63;;
53751;SDS011;41095;53.090;6.692;2023-07-13T13:43:42;2.53;;;1.70;;
53751;SDS011;41095;53.090;6.692;2023-07-13T13:46:23;1.75;;;1.10;;
53751;SDS011;41095;53.090;6.692;2023-07-13T13:48:50;3.92;;;2.05;;
53751;SDS011;41095;53.090;6.692;2023-07-13T13:51:20;3.70;;;1.67;;
53751;SDS011;41095;53.090;6.692;2023-07-13T13:53:47;2.47;;;1.75;;
53751;SDS011;41095;53.090;6.692;2023-07-13T13:56:17;3.17;;;1.73;;
53751;SDS011;41095;53.090;6.692;2023-07-13T13:58:43;3.20;;;1.50;;
53751;SDS011;41095;53.090;6.692;2023-07-13T14:01:19;3.13;;;1.60;;
53751;SDS011;41095;53.090;6.692;2023-07-13T14:03:47;2.10;;;1.42;;
53751;SDS011;41095;53.090;6.692;2023-07-13T14:06:19;2.10;;;1.80;;
53751;SDS011;41095;53.090;6.692;2023-07-13T14:08:44;4.65;;;1.63;;
53751;SDS011;41095;53.090;6.692;2023-07-13T14:11:16;6.05;;;1.85;;
53751;SDS011;41095;53.090;6.692;2023-07-13T14:13:54;3.13;;;1.38;;
53751;SDS011;41095;53.090;6.692;2023-07-13T14:16:24;3.53;;;1.50;;
53751;SDS011;41095;53.090;6.692;2023-07-13T14:18:54;2.10;;;1.50;;
53751;SDS011;41095;53.090;6.692;2023-07-13T14:21:23;3.72;;;1.73;;
53751;SDS011;41095;53.090;6.692;2023-07-13T14:23:49;2.75;;;1.98;;
53751;SDS011;41095;53.090;6.692;2023-07-13T14:26:25;2.15;;;1.48;;
53751;SDS011;41095;53.090;6.692;2023-07-13T14:28:56;2.55;;;1.80;;
53751;SDS011;41095;53.090;6.692;2023-07-13T14:31:23;3.67;;;1.60;;
53751;SDS011;41095;53.090;6.692;2023-07-13T14:33:51;4.45;;;1.60;;
53751;SDS011;41095;53.090;6.692;2023-07-13T14:38:52;3.97;;;1.65;;
53751;SDS011;41095;53.090;6.692;2023-07-13T14:41:18;2.33;;;1.73;;
53751;SDS011;41095;53.090;6.692;2023-07-13T14:43:44;2.90;;;1.67;;
53751;SDS011;41095;53.090;6.692;2023-07-13T14:46:18;2.72;;;2.42;;
53751;SDS011;41095;53.090;6.692;2023-07-13T14:48:54;2.85;;;1.85;;
53751;SDS011;41095;53.090;6.692;2023-07-13T14:51:28;2.28;;;1.52;;
53751;SDS011;41095;53.090;6.692;2023-07-13T14:53:55;2.95;;;1.65;;
53751;SDS011;41095;53.090;6.692;2023-07-13T14:56:21;1.85;;;1.60;;
53751;SDS011;41095;53.090;6.692;2023-07-13T14:58:47;3.63;;;1.80;;
53751;SDS011;41095;53.090;6.692;2023-07-13T15:01:13;4.25;;;2.08;;
53751;SDS011;41095;53.090;6.692;2023-07-13T15:03:45;3.75;;;1.70;;
53751;SDS011;41095;53.090;6.692;2023-07-13T15:06:12;3.72;;;2.05;;
53751;SDS011;41095;53.090;6.692;2023-07-13T15:08:38;2.50;;;1.80;;
53751;SDS011;41095;53.090;6.692;2023-07-13T15:11:06;2.25;;;1.48;;
53751;SDS011;41095;53.090;6.692;2023-07-13T15:13:32;1.80;;;1.30;;
53751;SDS011;41095;53.090;6.692;2023-07-13T15:15:59;3.03;;;1.40;;
53751;SDS011;41095;53.090;6.692;2023-07-13T15:18:26;3.35;;;1.45;;
53751;SDS011;41095;53.090;6.692;2023-07-13T15:20:52;2.42;;;1.70;;
53751;SDS011;41095;53.090;6.692;2023-07-13T15:23:21;5.05;;;2.20;;
53751;SDS011;41095;53.090;6.692;2023-07-13T15:25:51;2.97;;;2.30;;
53751;SDS011;41095;53.090;6.692;2023-07-13T15:28:17;4.07;;;1.90;;
53751;SDS011;41095;53.090;6.692;2023-07-13T15:33:26;4.35;;;1.75;;
53751;SDS011;41095;53.090;6.692;2023-07-13T15:35:53;3.97;;;1.52;;
53751;SDS011;41095;53.090;6.692;2023-07-13T15:38:22;2.95;;;1.40;;
53751;SDS011;41095;53.090;6.692;2023-07-13T15:40:49;4.75;;;2.08;;
53751;SDS011;41095;53.090;6.692;2023-07-13T15:43:16;2.38;;;1.83;;
53751;SDS011;41095;53.090;6.692;2023-07-13T15:45:42;3.05;;;1.60;;
53751;SDS011;41095;53.090;6.692;2023-07-13T15:50:49;3.58;;;1.80;;
53751;SDS011;41095;53.090;6.692;2023-07-13T15:53:19;2.97;;;1.70;;
53751;SDS011;41095;53.090;6.692;2023-07-13T15:55:49;3.07;;;1.83;;
53751;SDS011;41095;53.090;6.692;2023-07-13T15:58:16;5.05;;;2.03;;